createdAt,value
2022-10-31T00:01:45.241Z,4.32
2022-10-31T00:04:12.085Z,5.32
2022-10-31T00:06:41.312Z,5.88
2022-10-31T00:09:28.679Z,6.47
2022-10-31T00:11:56.015Z,3.72
2022-10-31T00:14:22.690Z,6.93
2022-10-31T00:16:49.360Z,5.60
2022-10-31T00:19:16.139Z,5.50
2022-10-31T00:21:42.847Z,5.95
2022-10-31T00:24:09.543Z,6.22
2022-10-31T00:26:36.260Z,5.13
2022-10-31T00:29:03.591Z,5.25
2022-10-31T00:31:31.350Z,4.65
2022-10-31T00:33:59.339Z,8.55
2022-10-31T00:36:26.029Z,6.45
2022-10-31T00:38:52.795Z,4.88
2022-10-31T00:41:20.280Z,7.47
2022-10-31T00:43:47.194Z,4.82
2022-10-31T00:46:14.640Z,5.30
2022-10-31T00:48:41.970Z,5.95
2022-10-31T00:51:09.713Z,4.88
2022-10-31T00:53:37.731Z,5.45
2022-10-31T00:56:05.107Z,6.93
2022-10-31T00:58:31.801Z,5.97
2022-10-31T01:01:04.752Z,4.55
2022-10-31T01:03:34.471Z,6.07
2022-10-31T01:06:09.615Z,4.65
2022-10-31T01:08:38.686Z,4.70
2022-10-31T01:11:12.830Z,3.88
2022-10-31T01:13:40.207Z,7.55
2022-10-31T01:16:15.002Z,5.18
2022-10-31T01:18:43.935Z,3.80
2022-10-31T01:21:21.170Z,5.72
2022-10-31T01:23:48.267Z,4.85
2022-10-31T01:26:21.719Z,6.45
2022-10-31T01:28:55.848Z,9.63
2022-10-31T01:31:30.725Z,5.00
2022-10-31T01:33:58.978Z,5.63
2022-10-31T01:36:32.906Z,5.78
2022-10-31T01:39:06.380Z,5.55
2022-10-31T01:41:37.621Z,4.55
2022-10-31T01:44:16.367Z,5.57
2022-10-31T01:46:48.106Z,3.72
2022-10-31T01:49:32.245Z,6.57
2022-10-31T01:52:12.630Z,4.93
2022-10-31T01:54:49.749Z,6.30
2022-10-31T01:57:19.341Z,7.35
2022-10-31T01:59:52.190Z,5.57
2022-10-31T02:02:20.271Z,5.97
2022-10-31T02:04:48.847Z,6.57
2022-10-31T02:07:24.700Z,3.75
2022-10-31T02:09:56.172Z,5.55
2022-10-31T02:12:23.539Z,5.28
2022-10-31T02:14:50.269Z,5.43
2022-10-31T02:17:17.213Z,7.28
2022-10-31T02:20:09.410Z,5.63
2022-10-31T02:23:32.395Z,4.90
2022-10-31T02:26:33.466Z,7.47
2022-10-31T02:29:43.089Z,3.90
2022-10-31T02:32:28.264Z,4.57
2022-10-31T02:35:00.122Z,6.90
2022-10-31T02:38:13.738Z,7.05
2022-10-31T02:40:56.386Z,5.35
2022-10-31T02:43:47.940Z,6.30
2022-10-31T02:46:27.005Z,6.32
2022-10-31T02:49:01.379Z,4.85
2022-10-31T02:51:28.968Z,3.55
2022-10-31T02:53:55.654Z,8.45
2022-10-31T02:56:22.346Z,5.50
2022-10-31T02:59:06.618Z,5.93
2022-10-31T03:02:25.839Z,4.85
2022-10-31T03:05:55.026Z,5.47
2022-10-31T03:08:51.356Z,5.90
2022-10-31T03:11:26.215Z,5.75
2022-10-31T03:14:23.557Z,4.57
2022-10-31T03:16:57.822Z,6.10
2022-10-31T03:19:31.195Z,5.70
2022-10-31T03:22:18.371Z,5.05
2022-10-31T03:24:49.648Z,5.20
2022-10-31T03:27:24.971Z,5.80
2022-10-31T03:29:57.314Z,7.78
2022-10-31T03:32:33.968Z,7.43
2022-10-31T03:35:07.195Z,7.93
2022-10-31T03:37:37.333Z,7.18
2022-10-31T03:40:08.968Z,6.63
2022-10-31T03:42:42.855Z,6.93
2022-10-31T03:45:22.691Z,7.80
2022-10-31T03:47:49.545Z,5.68
2022-10-31T03:50:17.786Z,5.72
2022-10-31T03:53:07.315Z,5.05
2022-10-31T03:55:55.195Z,7.15
2022-10-31T03:58:40.229Z,9.23
2022-10-31T04:01:17.789Z,6.88
2022-10-31T04:03:46.065Z,7.28
2022-10-31T04:06:17.238Z,5.15
2022-10-31T04:08:57.188Z,5.40
2022-10-31T04:11:31.948Z,5.63
2022-10-31T04:14:02.547Z,11.45
2022-10-31T04:16:29.716Z,5.45
2022-10-31T04:18:56.691Z,7.10
2022-10-31T04:21:32.536Z,5.78
2022-10-31T04:24:00.460Z,6.32
2022-10-31T04:26:27.209Z,8.13
2022-10-31T04:28:53.984Z,6.35
2022-10-31T04:31:34.069Z,4.88
2022-10-31T04:34:03.126Z,5.97
2022-10-31T04:36:29.840Z,5.18
2022-10-31T04:38:56.527Z,7.03
2022-10-31T04:41:23.287Z,7.05
2022-10-31T04:43:49.963Z,8.82
2022-10-31T04:46:16.690Z,6.80
2022-10-31T04:48:44.418Z,7.17
2022-10-31T04:51:11.482Z,5.43
2022-10-31T04:53:38.458Z,6.43
2022-10-31T04:56:05.694Z,8.15
2022-10-31T04:58:32.539Z,7.32
2022-10-31T05:01:04.564Z,7.00
2022-10-31T05:03:32.523Z,5.97
2022-10-31T05:05:59.265Z,8.05
2022-10-31T05:08:25.994Z,6.10
2022-10-31T05:10:53.776Z,6.35
2022-10-31T05:15:48.284Z,7.77
2022-10-31T05:18:14.960Z,6.38
2022-10-31T05:20:41.686Z,8.35
2022-10-31T05:23:13.780Z,6.43
2022-10-31T05:25:41.640Z,9.05
2022-10-31T05:28:09.295Z,6.07
2022-10-31T05:30:36.948Z,6.85
2022-10-31T05:33:04.031Z,6.57
2022-10-31T05:35:33.751Z,6.90
2022-10-31T05:38:00.927Z,7.13
2022-10-31T05:40:29.966Z,7.57
2022-10-31T05:42:59.499Z,7.15
2022-10-31T05:45:26.955Z,6.05
2022-10-31T05:48:03.102Z,7.27
2022-10-31T05:50:32.416Z,8.00
2022-10-31T05:53:06.331Z,8.67
2022-10-31T05:55:33.751Z,7.00
2022-10-31T05:58:01.487Z,7.83
2022-10-31T06:00:29.389Z,8.97
2022-10-31T06:03:06.424Z,5.95
2022-10-31T06:05:36.324Z,7.73
2022-10-31T06:08:03.513Z,6.93
2022-10-31T06:10:30.843Z,7.50
2022-10-31T06:12:57.869Z,8.77
2022-10-31T06:15:25.175Z,9.03
2022-10-31T06:18:03.056Z,10.97
2022-10-31T06:20:30.503Z,6.10
2022-10-31T06:23:00.150Z,7.23
2022-10-31T06:25:28.314Z,7.90
2022-10-31T06:27:55.693Z,7.03
2022-10-31T06:30:22.587Z,9.93
2022-10-31T06:32:50.630Z,9.73
2022-10-31T06:35:17.564Z,8.50
2022-10-31T06:37:51.921Z,8.47
2022-10-31T06:40:18.660Z,7.40
2022-10-31T06:42:45.380Z,9.90
2022-10-31T06:45:12.132Z,8.97
2022-10-31T06:47:56.860Z,8.70
2022-10-31T06:50:25.634Z,12.47
2022-10-31T06:52:59.783Z,13.03
2022-10-31T06:55:27.722Z,11.50
2022-10-31T06:58:00.276Z,15.07
2022-10-31T07:00:31.380Z,14.35
2022-10-31T07:03:04.510Z,14.47
2022-10-31T07:05:32.801Z,16.67
2022-10-31T07:08:04.968Z,13.90
2022-10-31T07:10:37.384Z,15.33
2022-10-31T07:13:16.209Z,12.30
2022-10-31T07:15:45.463Z,13.40
2022-10-31T07:18:14.594Z,12.18
2022-10-31T07:20:41.429Z,13.80
2022-10-31T07:23:11.766Z,11.55
2022-10-31T07:25:58.531Z,14.02
2022-10-31T07:28:27.749Z,11.98
2022-10-31T07:30:58.466Z,15.85
2022-10-31T07:33:27.454Z,13.50
2022-10-31T07:35:55.531Z,14.07
2022-10-31T07:38:22.325Z,14.77
2022-10-31T07:41:00.276Z,13.27
2022-10-31T07:43:26.981Z,14.68
2022-10-31T07:45:57.691Z,14.35
2022-10-31T07:48:24.436Z,18.30
2022-10-31T07:50:51.130Z,17.45
2022-10-31T07:53:17.915Z,15.52
2022-10-31T07:55:44.911Z,14.57
2022-10-31T07:58:17.202Z,15.82
2022-10-31T08:00:46.624Z,12.93
2022-10-31T08:03:17.729Z,15.70
2022-10-31T08:05:48.775Z,12.65
2022-10-31T08:08:16.475Z,16.65
2022-10-31T08:10:43.867Z,13.20
2022-10-31T08:13:13.656Z,13.38
2022-10-31T08:15:43.045Z,18.85
2022-10-31T08:18:15.079Z,15.85
2022-10-31T08:20:43.767Z,14.80
2022-10-31T08:23:12.923Z,15.07
2022-10-31T08:25:40.537Z,14.00
2022-10-31T08:28:10.355Z,19.63
2022-10-31T08:30:39.074Z,14.77
2022-10-31T08:33:14.331Z,14.95
2022-10-31T08:35:41.463Z,14.88
2022-10-31T08:38:11.730Z,16.25
2022-10-31T08:40:39.189Z,18.05
2022-10-31T08:43:16.264Z,17.58
2022-10-31T08:45:44.696Z,21.02
2022-10-31T08:48:15.175Z,14.52
2022-10-31T08:50:45.070Z,16.20
2022-10-31T08:53:18.588Z,16.02
2022-10-31T08:55:47.574Z,14.10
2022-10-31T08:58:18.344Z,15.18
2022-10-31T09:00:55.521Z,15.85
2022-10-31T09:03:26.850Z,13.95
2022-10-31T09:06:02.129Z,16.30
2022-10-31T09:08:33.591Z,34.55
2022-10-31T09:11:00.743Z,30.88
2022-10-31T09:13:28.375Z,21.63
2022-10-31T09:15:59.112Z,19.98
2022-10-31T09:18:28.805Z,19.98
2022-10-31T09:21:02.436Z,15.85
2022-10-31T09:23:29.488Z,17.17
2022-10-31T09:25:56.767Z,18.60
2022-10-31T09:28:25.105Z,21.52
2022-10-31T09:30:54.463Z,18.77
2022-10-31T09:33:38.064Z,20.42
2022-10-31T09:36:05.107Z,16.85
2022-10-31T09:38:31.860Z,17.23
2022-10-31T09:41:16.082Z,17.20
2022-10-31T09:43:57.807Z,16.75
2022-10-31T09:46:49.324Z,15.63
2022-10-31T09:50:12.658Z,15.68
2022-10-31T09:52:48.576Z,13.98
2022-10-31T09:55:40.403Z,13.38
2022-10-31T09:58:23.793Z,17.33
2022-10-31T10:00:54.276Z,18.75
2022-10-31T10:03:42.742Z,14.52
2022-10-31T10:06:20.211Z,17.30
2022-10-31T10:08:46.934Z,15.55
2022-10-31T10:11:32.598Z,14.73
2022-10-31T10:14:38.718Z,14.20
2022-10-31T10:17:20.379Z,12.80
2022-10-31T10:20:24.139Z,12.20
2022-10-31T10:23:03.795Z,12.00
2022-10-31T10:25:42.466Z,13.35
2022-10-31T10:28:32.887Z,12.77
2022-10-31T10:31:08.689Z,16.25
2022-10-31T10:33:43.866Z,15.50
2022-10-31T10:36:25.707Z,11.02
2022-10-31T10:39:03.089Z,11.05
2022-10-31T10:41:35.748Z,11.38
2022-10-31T10:44:06.239Z,13.40
2022-10-31T10:47:03.133Z,10.48
2022-10-31T10:49:42.338Z,10.15
2022-10-31T10:52:49.185Z,11.45
2022-10-31T10:55:30.095Z,11.38
2022-10-31T10:58:03.486Z,11.13
2022-10-31T11:00:41.099Z,12.88
2022-10-31T11:03:09.450Z,11.43
2022-10-31T11:05:55.157Z,11.30
2022-10-31T11:08:36.896Z,9.95
2022-10-31T11:11:26.391Z,10.77
2022-10-31T11:14:25.946Z,11.43
2022-10-31T11:17:32.177Z,11.75
2022-10-31T11:20:19.335Z,9.90
2022-10-31T11:22:49.943Z,12.10
2022-10-31T11:25:29.962Z,16.00
2022-10-31T11:28:10.125Z,10.75
2022-10-31T11:30:47.298Z,11.60
2022-10-31T11:33:37.832Z,11.52
2022-10-31T11:36:26.850Z,11.52
2022-10-31T11:38:55.454Z,12.20
2022-10-31T11:41:35.865Z,13.15
2022-10-31T11:44:28.841Z,16.02
2022-10-31T11:47:01.031Z,25.23
2022-10-31T11:49:57.192Z,23.98
2022-10-31T11:52:32.760Z,20.50
2022-10-31T11:55:19.698Z,18.63
2022-10-31T11:57:52.112Z,20.77
2022-10-31T12:00:39.315Z,22.02
2022-10-31T12:03:24.125Z,19.90
2022-10-31T12:06:01.258Z,21.83
2022-10-31T12:08:33.047Z,23.90
2022-10-31T12:11:31.938Z,23.02
2022-10-31T12:14:35.602Z,20.17
2022-10-31T12:17:27.299Z,18.63
2022-10-31T12:20:31.952Z,20.30
2022-10-31T12:23:20.976Z,21.85
2022-10-31T12:26:23.865Z,22.55
2022-10-31T12:29:35.375Z,21.90
2022-10-31T12:32:51.123Z,20.48
2022-10-31T12:38:30.120Z,19.25
2022-10-31T12:41:41.486Z,16.55
2022-10-31T12:44:42.882Z,18.70
2022-10-31T12:47:18.397Z,18.00
2022-10-31T12:50:15.371Z,20.30
2022-10-31T12:54:03.690Z,21.52
2022-10-31T12:57:14.103Z,18.00
2022-10-31T12:59:52.485Z,20.13
2022-10-31T13:02:45.038Z,19.50
2022-10-31T13:05:36.433Z,20.65
2022-10-31T13:08:39.164Z,18.02
2022-10-31T13:11:31.647Z,17.65
2022-10-31T13:14:23.037Z,15.70
2022-10-31T13:16:57.910Z,22.67
2022-10-31T13:19:45.802Z,21.52
2022-10-31T13:22:28.472Z,21.80
2022-10-31T13:25:10.279Z,23.38
2022-10-31T13:27:53.845Z,24.02
2022-10-31T13:30:29.732Z,17.35
2022-10-31T13:33:26.541Z,20.08
2022-10-31T13:36:30.295Z,19.67
2022-10-31T13:39:22.785Z,24.75
2022-10-31T13:42:09.271Z,23.13
2022-10-31T13:44:40.179Z,19.75
2022-10-31T13:47:27.838Z,21.33
2022-10-31T13:50:27.150Z,21.90
2022-10-31T13:53:36.769Z,28.33
2022-10-31T13:56:09.302Z,23.92
2022-10-31T13:58:57.674Z,21.65
2022-10-31T14:01:24.668Z,25.33
2022-10-31T14:04:20.737Z,23.80
2022-10-31T14:06:58.209Z,23.17
2022-10-31T14:09:41.300Z,25.40
2022-10-31T14:12:22.069Z,22.90
2022-10-31T14:15:02.963Z,25.02
2022-10-31T14:17:48.730Z,21.98
2022-10-31T14:20:19.552Z,18.52
2022-10-31T14:25:37.971Z,27.48
2022-10-31T14:28:33.166Z,20.13
2022-10-31T14:31:01.456Z,20.27
2022-10-31T14:33:31.462Z,24.48
2022-10-31T14:36:14.832Z,26.05
2022-10-31T14:39:02.797Z,18.20
2022-10-31T14:41:33.386Z,20.27
2022-10-31T14:44:49.866Z,23.40
2022-10-31T14:47:44.086Z,23.63
2022-10-31T14:50:58.436Z,21.40
2022-10-31T14:53:37.371Z,18.38
2022-10-31T14:56:12.396Z,20.65
2022-10-31T14:58:44.418Z,20.67
2022-10-31T15:01:30.658Z,24.48
2022-10-31T15:04:23.019Z,21.02
2022-10-31T15:07:24.877Z,26.13
2022-10-31T15:10:30.654Z,20.45
2022-10-31T15:13:29.395Z,20.13
2022-10-31T15:15:56.917Z,18.02
2022-10-31T15:18:28.911Z,18.98
2022-10-31T15:20:57.893Z,20.98
2022-10-31T15:23:27.873Z,22.25
2022-10-31T15:26:05.300Z,17.58
2022-10-31T15:28:43.460Z,20.27
2022-10-31T15:31:18.166Z,18.55
2022-10-31T15:34:01.791Z,19.73
2022-10-31T15:36:29.892Z,18.38
2022-10-31T15:38:58.889Z,19.80
2022-10-31T15:41:54.831Z,23.15
2022-10-31T15:44:28.934Z,21.98
2022-10-31T15:47:06.278Z,22.60
2022-10-31T15:49:41.952Z,18.23
2022-10-31T15:52:14.447Z,21.58
2022-10-31T15:54:54.179Z,21.55
2022-10-31T15:57:21.293Z,21.10
2022-10-31T15:59:50.384Z,19.75
2022-10-31T16:02:26.581Z,19.55
2022-10-31T16:05:02.143Z,23.88
2022-10-31T16:07:33.664Z,20.10
2022-10-31T16:10:07.499Z,19.55
2022-10-31T16:12:43.253Z,20.25
2022-10-31T16:15:18.767Z,21.33
2022-10-31T16:17:50.942Z,19.60
2022-10-31T16:20:33.007Z,25.52
2022-10-31T16:23:02.219Z,22.33
2022-10-31T16:25:42.278Z,22.98
2022-10-31T16:28:24.588Z,19.20
2022-10-31T16:30:56.216Z,22.58
2022-10-31T16:33:35.017Z,18.95
2022-10-31T16:36:22.496Z,19.88
2022-10-31T16:38:51.131Z,21.92
2022-10-31T16:41:17.829Z,19.92
2022-10-31T16:43:47.711Z,22.67
2022-10-31T16:46:28.219Z,23.77
2022-10-31T16:48:56.111Z,23.00
2022-10-31T16:51:22.833Z,20.55
2022-10-31T16:53:54.279Z,18.88
2022-10-31T16:56:32.343Z,21.30
2022-10-31T16:59:08.954Z,17.90
2022-10-31T17:01:39.637Z,19.27
2022-10-31T17:04:14.590Z,21.38
2022-10-31T17:06:42.735Z,21.55
2022-10-31T17:09:09.742Z,22.02
2022-10-31T17:11:37.333Z,21.75
2022-10-31T17:14:05.387Z,20.52
2022-10-31T17:16:42.283Z,22.27
2022-10-31T17:19:14.176Z,20.92
2022-10-31T17:21:41.538Z,21.65
2022-10-31T17:24:14.731Z,20.52
2022-10-31T17:26:42.531Z,24.25
2022-10-31T17:29:09.282Z,21.05
2022-10-31T17:31:39.055Z,18.73
2022-10-31T17:34:07.417Z,23.40
2022-10-31T17:36:35.420Z,18.40
2022-10-31T17:39:05.258Z,26.67
2022-10-31T17:41:32.050Z,24.73
2022-10-31T17:43:59.389Z,22.42
2022-10-31T17:46:26.444Z,19.52
2022-10-31T17:48:53.275Z,20.00
2022-10-31T17:51:20.075Z,23.00
2022-10-31T17:53:46.801Z,21.88
2022-10-31T17:56:13.651Z,22.42
2022-10-31T17:58:40.576Z,23.33
2022-10-31T18:01:16.436Z,20.60
2022-10-31T18:03:43.465Z,20.88
2022-10-31T18:06:11.688Z,21.27
2022-10-31T18:08:40.885Z,17.40
2022-10-31T18:11:14.715Z,24.73
2022-10-31T18:13:41.852Z,22.50
2022-10-31T18:16:15.652Z,23.17
2022-10-31T18:18:42.964Z,21.92
2022-10-31T18:21:10.448Z,22.25
2022-10-31T18:23:37.297Z,20.83
2022-10-31T18:26:04.251Z,22.40
2022-10-31T18:28:30.966Z,20.38
2022-10-31T18:31:01.082Z,19.88
2022-10-31T18:33:28.089Z,20.63
2022-10-31T18:35:55.325Z,19.42
2022-10-31T18:38:22.478Z,22.45
2022-10-31T18:40:51.243Z,19.05
2022-10-31T18:43:17.999Z,18.15
2022-10-31T18:45:47.860Z,18.50
2022-10-31T18:48:19.434Z,21.42
2022-10-31T18:50:46.790Z,17.33
2022-10-31T18:53:13.563Z,17.63
2022-10-31T18:55:45.477Z,17.88
2022-10-31T18:58:16.287Z,16.05
2022-10-31T19:00:43.091Z,15.20
2022-10-31T19:03:09.897Z,16.30
2022-10-31T19:05:36.726Z,16.63
2022-10-31T19:08:03.970Z,13.65
2022-10-31T19:10:30.746Z,16.13
2022-10-31T19:12:57.447Z,14.30
2022-10-31T19:15:24.177Z,15.50
2022-10-31T19:17:50.909Z,16.73
2022-10-31T19:20:17.806Z,16.33
2022-10-31T19:22:44.539Z,15.57
2022-10-31T19:25:11.339Z,15.98
2022-10-31T19:27:38.933Z,12.93
2022-10-31T19:30:07.513Z,13.80
2022-10-31T19:32:34.678Z,16.13
2022-10-31T19:35:01.737Z,13.07
2022-10-31T19:37:31.047Z,13.13
2022-10-31T19:39:57.746Z,13.23
2022-10-31T19:42:24.438Z,11.63
2022-10-31T19:44:51.175Z,16.83
2022-10-31T19:47:17.851Z,11.90
2022-10-31T19:49:44.549Z,12.55
2022-10-31T19:52:11.299Z,9.32
2022-10-31T19:54:37.978Z,7.72
2022-10-31T19:57:04.697Z,10.25
2022-10-31T19:59:38.275Z,10.45
2022-10-31T20:02:08.661Z,7.97
2022-10-31T20:04:41.655Z,9.15
2022-10-31T20:07:09.161Z,8.30
2022-10-31T20:09:35.851Z,10.82
2022-10-31T20:12:02.535Z,10.60
2022-10-31T20:14:29.236Z,12.13
2022-10-31T20:16:55.943Z,11.35
2022-10-31T20:19:24.089Z,9.07
2022-10-31T20:21:50.829Z,10.02
2022-10-31T20:24:17.552Z,9.32
2022-10-31T20:26:44.330Z,8.18
2022-10-31T20:29:19.742Z,11.18
2022-10-31T20:31:47.331Z,9.35
2022-10-31T20:34:15.035Z,9.43
2022-10-31T20:36:41.818Z,9.90
2022-10-31T20:39:10.121Z,11.02
2022-10-31T20:41:39.654Z,11.48
2022-10-31T20:44:07.046Z,10.45
2022-10-31T20:46:34.013Z,7.18
2022-10-31T20:49:00.733Z,7.13
2022-10-31T20:51:28.852Z,9.48
2022-10-31T20:53:59.803Z,8.73
2022-10-31T20:56:28.480Z,8.82
2022-10-31T20:58:56.553Z,7.60
2022-10-31T21:01:28.871Z,8.13
2022-10-31T21:03:56.892Z,7.45
2022-10-31T21:06:24.303Z,6.95
2022-10-31T21:08:52.408Z,9.95
2022-10-31T21:11:22.678Z,7.40
2022-10-31T21:13:59.915Z,7.20
2022-10-31T21:16:31.478Z,7.05
2022-10-31T21:19:04.350Z,5.53
2022-10-31T21:21:35.858Z,8.40
2022-10-31T21:24:10.974Z,7.95
2022-10-31T21:26:42.676Z,7.00
2022-10-31T21:29:11.557Z,8.30
2022-10-31T21:31:39.844Z,7.32
2022-10-31T21:34:22.849Z,8.52
2022-10-31T21:36:49.575Z,9.40
2022-10-31T21:39:16.292Z,8.07
2022-10-31T21:41:43.416Z,8.63
2022-10-31T21:44:10.139Z,8.07
2022-10-31T21:46:38.623Z,6.95
2022-10-31T21:49:05.652Z,5.75
2022-10-31T21:51:36.036Z,10.15
2022-10-31T21:54:22.182Z,11.02
2022-10-31T21:56:49.061Z,6.68
2022-10-31T21:59:15.740Z,7.35
2022-10-31T22:01:42.566Z,7.38
2022-10-31T22:04:09.854Z,9.35
2022-10-31T22:06:38.078Z,12.25
2022-10-31T22:09:09.360Z,6.55
2022-10-31T22:11:36.330Z,6.70
2022-10-31T22:14:04.936Z,7.60
2022-10-31T22:16:36.396Z,10.27
2022-10-31T22:19:08.342Z,6.72
2022-10-31T22:21:43.028Z,5.97
2022-10-31T22:24:10.656Z,6.97
2022-10-31T22:26:39.365Z,7.82
2022-10-31T22:29:11.296Z,7.97
2022-10-31T22:31:41.374Z,6.32
2022-10-31T22:34:08.658Z,7.50
2022-10-31T22:36:37.667Z,6.70
2022-10-31T22:39:06.654Z,6.85
2022-10-31T22:41:36.208Z,7.85
2022-10-31T22:44:04.979Z,6.28
2022-10-31T22:46:38.522Z,7.32
2022-10-31T22:49:16.357Z,9.38
2022-10-31T22:51:45.047Z,5.55
2022-10-31T22:54:16.739Z,8.95
2022-10-31T22:56:43.879Z,7.97
2022-10-31T22:59:16.595Z,5.80
2022-10-31T23:01:47.158Z,5.82
2022-10-31T23:04:16.568Z,7.75
2022-10-31T23:06:44.367Z,10.25
2022-10-31T23:09:16.250Z,9.07
2022-10-31T23:11:44.879Z,7.55
2022-10-31T23:14:20.362Z,4.78
2022-10-31T23:16:54.244Z,10.02
2022-10-31T23:19:45.143Z,8.13
2022-10-31T23:22:12.563Z,5.85
2022-10-31T23:24:47.252Z,7.95
2022-10-31T23:27:23.693Z,9.05
2022-10-31T23:29:56.770Z,7.63
2022-10-31T23:32:38.066Z,7.97
2022-10-31T23:35:10.558Z,6.63
2022-10-31T23:37:39.155Z,7.22
2022-10-31T23:40:08.692Z,11.23
2022-10-31T23:42:35.820Z,10.07
2022-10-31T23:45:03.170Z,7.53
2022-10-31T23:47:29.981Z,6.88
2022-10-31T23:49:56.650Z,7.70
2022-10-31T23:52:23.365Z,6.05
2022-10-31T23:54:50.102Z,5.45
2022-10-31T23:57:18.040Z,7.45
2022-10-31T23:59:44.868Z,6.97
